createdAt,value
2022-08-20T00:01:01.545Z,69.50
2022-08-20T00:03:28.649Z,69.50
2022-08-20T00:05:56.678Z,69.70
2022-08-20T00:08:23.298Z,69.70
2022-08-20T00:10:52.435Z,69.60
2022-08-20T00:13:21.555Z,69.70
2022-08-20T00:15:48.019Z,69.70
2022-08-20T00:18:14.493Z,69.80
2022-08-20T00:20:40.967Z,69.80
2022-08-20T00:23:10.489Z,69.80
2022-08-20T00:25:37.381Z,69.90
2022-08-20T00:28:03.905Z,69.80
2022-08-20T00:30:30.368Z,69.80
2022-08-20T00:32:56.837Z,69.80
2022-08-20T00:35:23.318Z,69.80
2022-08-20T00:37:49.784Z,69.80
2022-08-20T00:40:22.181Z,69.90
2022-08-20T00:42:49.473Z,69.90
2022-08-20T00:45:15.938Z,69.80
2022-08-20T00:47:51.126Z,69.80
2022-08-20T00:50:18.140Z,69.80
2022-08-20T00:52:49.377Z,69.80
2022-08-20T00:55:16.746Z,69.80
2022-08-20T00:57:46.110Z,69.80
2022-08-20T01:00:28.412Z,70.00
2022-08-20T01:02:54.875Z,70.00
2022-08-20T01:05:21.342Z,70.10
2022-08-20T01:07:56.017Z,70.10
2022-08-20T01:10:22.655Z,70.20
2022-08-20T01:12:49.114Z,70.30
2022-08-20T01:15:22.090Z,70.20
2022-08-20T01:17:57.442Z,70.30
2022-08-20T01:20:24.064Z,70.20
2022-08-20T01:22:50.519Z,70.20
2022-08-20T01:25:16.988Z,70.10
2022-08-20T01:27:43.444Z,70.10
2022-08-20T01:30:11.844Z,70.20
2022-08-20T01:32:38.315Z,70.20
2022-08-20T01:35:04.769Z,70.20
2022-08-20T01:37:31.540Z,70.40
2022-08-20T01:39:58.438Z,70.60
2022-08-20T01:42:24.962Z,70.50
2022-08-20T01:44:51.427Z,70.50
2022-08-20T01:47:17.923Z,70.50
2022-08-20T01:49:44.401Z,70.50
2022-08-20T01:52:10.875Z,70.50
2022-08-20T01:54:37.335Z,70.50
2022-08-20T01:57:03.818Z,70.60
2022-08-20T01:59:30.283Z,70.50
2022-08-20T02:01:56.803Z,70.50
2022-08-20T02:04:23.290Z,70.50
2022-08-20T02:06:57.230Z,70.50
2022-08-20T02:09:23.926Z,70.60
2022-08-20T02:11:50.402Z,70.50
2022-08-20T02:14:16.875Z,70.50
2022-08-20T02:16:43.337Z,70.60
2022-08-20T02:19:19.015Z,70.70
2022-08-20T02:21:46.477Z,70.60
2022-08-20T02:24:12.944Z,70.70
2022-08-20T02:26:39.405Z,70.60
2022-08-20T02:29:05.877Z,70.60
2022-08-20T02:31:34.941Z,70.80
2022-08-20T02:34:21.791Z,70.70
2022-08-20T02:36:48.046Z,70.70
2022-08-20T02:39:14.528Z,70.70
2022-08-20T02:41:40.989Z,70.60
2022-08-20T02:44:07.496Z,70.60
2022-08-20T02:46:33.960Z,70.60
2022-08-20T02:49:00.446Z,70.60
2022-08-20T02:51:30.656Z,70.60
2022-08-20T02:53:57.253Z,70.80
2022-08-20T02:56:23.734Z,70.80
2022-08-20T02:58:50.202Z,70.90
2022-08-20T03:01:16.706Z,70.80
2022-08-20T03:03:43.203Z,70.90
2022-08-20T03:06:09.661Z,70.80
2022-08-20T03:08:36.130Z,70.70
2022-08-20T03:11:02.598Z,70.70
2022-08-20T03:13:29.068Z,71.00
2022-08-20T03:15:58.861Z,70.80
2022-08-20T03:18:25.696Z,70.90
2022-08-20T03:20:52.360Z,71.00
2022-08-20T03:23:18.866Z,70.80
2022-08-20T03:25:45.328Z,70.80
2022-08-20T03:28:11.808Z,70.90
2022-08-20T03:30:38.270Z,70.90
2022-08-20T03:33:04.733Z,71.10
2022-08-20T03:35:31.207Z,71.20
2022-08-20T03:37:57.817Z,71.10
2022-08-20T03:40:24.360Z,71.20
2022-08-20T03:42:50.826Z,71.30
2022-08-20T03:45:20.508Z,71.20
2022-08-20T03:47:47.139Z,71.30
2022-08-20T03:50:14.688Z,71.30
2022-08-20T03:52:49.302Z,71.20
2022-08-20T03:55:15.774Z,71.20
2022-08-20T03:57:42.252Z,71.10
2022-08-20T04:00:08.732Z,71.20
2022-08-20T04:02:35.202Z,71.10
2022-08-20T04:05:01.669Z,71.00
2022-08-20T04:07:28.136Z,71.10
2022-08-20T04:09:54.610Z,71.10
2022-08-20T04:12:21.077Z,71.10
2022-08-20T04:14:47.554Z,71.10
2022-08-20T04:17:14.045Z,71.20
2022-08-20T04:19:40.526Z,71.30
2022-08-20T04:22:06.993Z,71.10
2022-08-20T04:24:33.470Z,71.20
2022-08-20T04:26:59.929Z,71.20
2022-08-20T04:29:26.404Z,71.10
2022-08-20T04:31:58.982Z,71.10
2022-08-20T04:34:26.477Z,71.10
2022-08-20T04:36:52.934Z,71.00
2022-08-20T04:39:19.414Z,71.00
2022-08-20T04:41:45.877Z,71.00
2022-08-20T04:44:12.362Z,71.10
2022-08-20T04:46:38.820Z,71.10
2022-08-20T04:49:05.296Z,71.20
2022-08-20T04:51:31.788Z,71.10
2022-08-20T04:53:58.280Z,71.20
2022-08-20T04:56:24.762Z,71.10
2022-08-20T04:58:51.296Z,71.30
2022-08-20T05:01:17.904Z,71.20
2022-08-20T05:03:44.398Z,71.20
2022-08-20T05:06:10.869Z,71.20
2022-08-20T05:08:37.329Z,71.20
2022-08-20T05:11:33.886Z,71.30
2022-08-20T05:13:50.511Z,71.50
2022-08-20T05:16:16.980Z,71.50
2022-08-20T05:18:43.440Z,71.40
2022-08-20T05:21:09.909Z,71.40
2022-08-20T05:23:36.368Z,71.40
2022-08-20T05:26:02.845Z,71.30
2022-08-20T05:28:30.318Z,71.30
2022-08-20T05:30:56.789Z,71.40
2022-08-20T05:33:23.252Z,71.30
2022-08-20T05:35:49.729Z,71.40
2022-08-20T05:38:16.185Z,71.50
2022-08-20T05:40:42.658Z,71.40
2022-08-20T05:43:09.122Z,71.50
2022-08-20T05:45:35.603Z,71.50
2022-08-20T05:48:03.512Z,71.40
2022-08-20T05:50:30.048Z,71.30
2022-08-20T05:52:56.510Z,72.00
2022-08-20T05:55:22.993Z,71.50
2022-08-20T05:57:49.505Z,71.50
2022-08-20T06:00:16.014Z,71.50
2022-08-20T06:02:42.480Z,71.50
2022-08-20T06:05:08.941Z,71.50
2022-08-20T06:07:35.418Z,71.50
2022-08-20T06:10:01.881Z,71.60
2022-08-20T06:12:28.357Z,71.50
2022-08-20T06:14:54.825Z,71.50
2022-08-20T06:17:22.141Z,71.50
2022-08-20T06:19:48.873Z,71.50
2022-08-20T06:22:19.479Z,71.50
2022-08-20T06:24:51.776Z,71.40
2022-08-20T06:27:18.237Z,71.40
2022-08-20T06:29:44.703Z,71.40
2022-08-20T06:32:11.182Z,71.40
2022-08-20T06:34:37.642Z,71.50
2022-08-20T06:37:17.243Z,71.30
2022-08-20T06:39:43.780Z,71.10
2022-08-20T06:42:10.274Z,71.00
2022-08-20T06:44:36.744Z,71.00
2022-08-20T06:47:03.231Z,70.70
2022-08-20T06:49:35.151Z,70.50
2022-08-20T06:52:01.918Z,70.30
2022-08-20T06:54:28.600Z,70.20
2022-08-20T06:56:56.043Z,70.20
2022-08-20T06:59:22.509Z,70.20
2022-08-20T07:01:48.976Z,70.20
2022-08-20T07:04:15.439Z,70.00
2022-08-20T07:06:41.922Z,70.00
2022-08-20T07:09:08.382Z,69.80
2022-08-20T07:11:34.853Z,69.70
2022-08-20T07:14:01.320Z,69.70
2022-08-20T07:16:27.780Z,69.70
2022-08-20T07:18:54.250Z,69.60
2022-08-20T07:21:20.726Z,70.20
2022-08-20T07:23:47.175Z,69.60
2022-08-20T07:26:13.639Z,69.40
2022-08-20T07:28:40.115Z,69.40
2022-08-20T07:31:13.597Z,69.30
2022-08-20T07:33:40.888Z,69.20
2022-08-20T07:36:07.672Z,69.00
2022-08-20T07:38:34.147Z,69.00
2022-08-20T07:41:00.615Z,68.90
2022-08-20T07:43:27.080Z,68.80
2022-08-20T07:45:53.547Z,68.70
2022-08-20T07:48:30.935Z,68.60
2022-08-20T07:50:58.362Z,68.60
2022-08-20T07:53:24.845Z,68.50
2022-08-20T07:55:58.756Z,68.40
2022-08-20T07:58:33.553Z,68.30
2022-08-20T08:01:00.255Z,68.10
2022-08-20T08:03:39.596Z,67.80
2022-08-20T08:06:13.270Z,67.70
2022-08-20T08:08:40.937Z,67.80
2022-08-20T08:11:07.405Z,67.50
2022-08-20T08:13:33.889Z,67.30
2022-08-20T08:16:00.365Z,67.20
2022-08-20T08:18:31.332Z,66.80
2022-08-20T08:20:58.315Z,66.70
2022-08-20T08:23:31.868Z,66.50
2022-08-20T08:25:58.738Z,66.30
2022-08-20T08:28:25.212Z,66.00
2022-08-20T08:30:51.666Z,65.70
2022-08-20T08:33:18.141Z,65.20
2022-08-20T08:35:44.597Z,64.40
2022-08-20T08:38:14.210Z,64.30
2022-08-20T08:40:40.944Z,63.80
2022-08-20T08:43:07.618Z,63.00
2022-08-20T08:45:34.086Z,62.70
2022-08-20T08:48:00.565Z,62.60
2022-08-20T08:50:50.116Z,62.30
2022-08-20T08:53:13.488Z,61.50
2022-08-20T08:55:39.944Z,61.20
2022-08-20T08:58:17.155Z,61.10
2022-08-20T09:00:52.737Z,61.00
2022-08-20T09:03:23.977Z,60.50
2022-08-20T09:05:50.445Z,60.10
2022-08-20T09:08:17.334Z,60.40
2022-08-20T09:10:43.830Z,59.90
2022-08-20T09:13:10.299Z,59.60
2022-08-20T09:15:36.771Z,59.50
2022-08-20T09:18:03.229Z,59.80
2022-08-20T09:20:29.708Z,59.80
2022-08-20T09:22:56.274Z,59.80
2022-08-20T09:25:22.809Z,58.80
2022-08-20T09:27:49.274Z,59.00
2022-08-20T09:30:17.440Z,58.80
2022-08-20T09:32:44.959Z,58.10
2022-08-20T09:35:11.433Z,57.00
2022-08-20T09:37:38.095Z,55.40
2022-08-20T09:40:04.656Z,55.20
2022-08-20T09:42:31.149Z,54.10
2022-08-20T09:44:57.625Z,53.20
2022-08-20T09:47:24.079Z,53.00
2022-08-20T09:49:50.553Z,52.50
2022-08-20T09:52:17.010Z,52.30
2022-08-20T09:54:46.643Z,52.10
2022-08-20T09:57:13.320Z,51.20
2022-08-20T09:59:39.797Z,50.70
2022-08-20T10:02:06.319Z,50.30
2022-08-20T10:04:32.846Z,49.80
2022-08-20T10:06:59.305Z,49.50
2022-08-20T10:09:25.765Z,49.90
2022-08-20T10:11:52.235Z,49.10
2022-08-20T10:14:18.711Z,48.80
2022-08-20T10:16:45.170Z,47.20
2022-08-20T10:19:11.645Z,47.10
2022-08-20T10:21:39.022Z,45.70
2022-08-20T10:24:05.810Z,45.80
2022-08-20T10:26:32.278Z,46.10
2022-08-20T10:28:58.746Z,46.00
2022-08-20T10:31:25.222Z,45.60
2022-08-20T10:33:51.699Z,45.80
2022-08-20T10:36:18.179Z,45.10
2022-08-20T10:38:44.641Z,45.10
2022-08-20T10:41:11.105Z,44.90
2022-08-20T10:43:37.571Z,44.60
2022-08-20T10:46:04.047Z,43.90
2022-08-20T10:48:30.517Z,42.60
2022-08-20T10:50:56.994Z,42.00
2022-08-20T10:53:23.448Z,42.40
2022-08-20T10:55:49.917Z,42.50
2022-08-20T10:58:16.382Z,42.80
2022-08-20T11:00:42.850Z,43.40
2022-08-20T11:03:09.310Z,41.70
2022-08-20T11:05:35.793Z,42.10
2022-08-20T11:08:02.363Z,42.30
2022-08-20T11:10:28.979Z,42.90
2022-08-20T11:12:55.453Z,43.30
2022-08-20T11:15:21.928Z,43.70
2022-08-20T11:17:48.380Z,43.70
2022-08-20T11:20:14.855Z,44.00
2022-08-20T11:22:41.328Z,43.70
2022-08-20T11:25:07.810Z,44.00
2022-08-20T11:27:34.274Z,44.40
2022-08-20T11:30:00.750Z,44.30
2022-08-20T11:32:27.237Z,44.30
2022-08-20T11:34:53.727Z,43.90
2022-08-20T11:37:20.188Z,43.30
2022-08-20T11:39:46.664Z,41.80
2022-08-20T11:42:13.208Z,41.60
2022-08-20T11:44:39.665Z,41.40
2022-08-20T11:47:06.142Z,41.70
2022-08-20T11:49:32.606Z,41.80
2022-08-20T11:51:59.075Z,42.20
2022-08-20T11:54:25.528Z,41.80
2022-08-20T11:56:52.595Z,42.10
2022-08-20T11:59:19.055Z,41.60
2022-08-20T12:02:02.314Z,41.50
2022-08-20T12:04:30.029Z,40.70
2022-08-20T12:07:00.625Z,40.20
2022-08-20T12:09:27.762Z,40.90
2022-08-20T12:11:54.232Z,41.30
2022-08-20T12:14:20.695Z,40.90
2022-08-20T12:16:47.166Z,40.50
2022-08-20T12:19:13.620Z,40.60
2022-08-20T12:21:40.093Z,41.20
2022-08-20T12:24:06.553Z,40.50
2022-08-20T12:26:33.029Z,40.90
2022-08-20T12:28:59.500Z,41.20
2022-08-20T12:31:25.986Z,41.00
2022-08-20T12:33:52.443Z,41.00
2022-08-20T12:36:18.919Z,40.60
2022-08-20T12:38:45.379Z,40.50
2022-08-20T12:41:11.850Z,39.50
2022-08-20T12:43:38.318Z,39.10
2022-08-20T12:46:04.795Z,39.10
2022-08-20T12:48:31.265Z,39.50
2022-08-20T12:50:57.740Z,40.10
2022-08-20T12:53:24.201Z,40.00
2022-08-20T12:55:50.684Z,40.10
2022-08-20T12:58:17.149Z,40.00
2022-08-20T13:00:47.302Z,39.40
2022-08-20T13:03:17.493Z,39.20
2022-08-20T13:05:43.957Z,39.20
2022-08-20T13:08:10.423Z,38.70
2022-08-20T13:10:36.887Z,38.90
2022-08-20T13:13:03.364Z,38.60
2022-08-20T13:15:29.829Z,38.20
2022-08-20T13:17:56.310Z,38.80
2022-08-20T13:20:22.776Z,38.10
2022-08-20T13:22:49.240Z,37.30
2022-08-20T13:25:15.689Z,37.30
2022-08-20T13:27:42.163Z,37.40
2022-08-20T13:30:08.631Z,36.90
2022-08-20T13:32:35.114Z,37.00
2022-08-20T13:35:01.574Z,37.10
2022-08-20T13:37:28.045Z,36.70
2022-08-20T13:39:54.554Z,36.90
2022-08-20T13:42:21.077Z,36.80
2022-08-20T13:44:47.543Z,36.30
2022-08-20T13:47:14.023Z,36.20
2022-08-20T13:49:40.502Z,36.30
2022-08-20T13:52:06.984Z,36.60
2022-08-20T13:54:34.987Z,36.60
2022-08-20T13:57:01.550Z,35.80
2022-08-20T13:59:28.021Z,35.80
2022-08-20T14:01:54.489Z,35.70
2022-08-20T14:04:20.948Z,35.90
2022-08-20T14:06:47.421Z,36.00
2022-08-20T14:09:13.888Z,35.80
2022-08-20T14:11:40.413Z,35.70
2022-08-20T14:14:06.889Z,36.00
2022-08-20T14:16:35.726Z,35.70
2022-08-20T14:19:02.481Z,34.80
2022-08-20T14:21:28.960Z,34.70
2022-08-20T14:23:55.421Z,35.30
2022-08-20T14:26:21.879Z,35.80
2022-08-20T14:28:48.349Z,36.00
2022-08-20T14:31:14.810Z,36.10
2022-08-20T14:33:44.533Z,36.00
2022-08-20T14:36:11.304Z,35.80
2022-08-20T14:38:37.776Z,35.40
2022-08-20T14:41:04.229Z,35.70
2022-08-20T14:43:30.705Z,35.80
2022-08-20T14:45:57.172Z,35.80
2022-08-20T14:48:23.641Z,36.10
2022-08-20T14:50:50.097Z,35.90
2022-08-20T14:53:16.578Z,35.90
2022-08-20T14:55:43.040Z,36.00
2022-08-20T14:58:09.508Z,35.10
2022-08-20T15:00:35.976Z,35.50
2022-08-20T15:03:02.458Z,35.90
2022-08-20T15:05:29.813Z,35.90
2022-08-20T15:07:56.387Z,36.10
2022-08-20T15:10:22.850Z,36.20
2022-08-20T15:12:49.322Z,36.50
2022-08-20T15:15:16.232Z,36.60
2022-08-20T15:17:42.770Z,36.50
2022-08-20T15:20:09.249Z,36.10
2022-08-20T15:22:47.022Z,36.10
2022-08-20T15:25:13.488Z,36.40
2022-08-20T15:27:39.970Z,36.40
2022-08-20T15:30:06.434Z,35.80
2022-08-20T15:32:32.908Z,35.20
2022-08-20T15:34:59.374Z,34.40
2022-08-20T15:37:25.842Z,34.60
2022-08-20T15:39:52.359Z,35.00
2022-08-20T15:42:18.875Z,35.30
2022-08-20T15:44:45.340Z,35.60
2022-08-20T15:47:11.809Z,35.90
2022-08-20T15:49:38.269Z,36.20
2022-08-20T15:52:04.727Z,36.40
2022-08-20T15:54:31.204Z,36.60
2022-08-20T15:56:57.662Z,36.60
2022-08-20T15:59:24.139Z,36.80
2022-08-20T16:01:50.651Z,36.90
2022-08-20T16:04:17.150Z,36.80
2022-08-20T16:06:43.611Z,36.90
2022-08-20T16:09:10.082Z,37.10
2022-08-20T16:11:36.596Z,37.00
2022-08-20T16:14:03.117Z,36.80
2022-08-20T16:16:31.366Z,36.70
2022-08-20T16:18:57.841Z,36.70
2022-08-20T16:21:24.296Z,36.30
2022-08-20T16:23:50.785Z,36.10
2022-08-20T16:26:17.255Z,36.00
2022-08-20T16:28:43.727Z,36.20
2022-08-20T16:31:13.761Z,36.50
2022-08-20T16:33:40.554Z,36.80
2022-08-20T16:36:07.034Z,37.00
2022-08-20T16:38:33.497Z,37.10
2022-08-20T16:40:59.978Z,37.50
2022-08-20T16:43:26.438Z,37.80
2022-08-20T16:45:52.916Z,37.80
2022-08-20T16:48:19.376Z,38.40
2022-08-20T16:50:45.864Z,37.70
2022-08-20T16:53:12.330Z,37.70
2022-08-20T16:55:38.807Z,37.50
2022-08-20T16:58:05.284Z,37.80
2022-08-20T17:00:31.787Z,38.00
2022-08-20T17:02:58.449Z,38.30
2022-08-20T17:05:25.008Z,38.60
2022-08-20T17:07:52.802Z,38.60
2022-08-20T17:10:19.502Z,38.70
2022-08-20T17:12:45.980Z,39.00
2022-08-20T17:15:12.441Z,39.20
2022-08-20T17:17:38.910Z,39.20
2022-08-20T17:20:05.370Z,39.30
2022-08-20T17:22:31.844Z,39.60
2022-08-20T17:24:58.313Z,40.10
2022-08-20T17:27:24.792Z,40.30
2022-08-20T17:29:51.256Z,40.40
2022-08-20T17:32:17.732Z,40.60
2022-08-20T17:34:44.195Z,40.80
2022-08-20T17:37:10.666Z,40.90
2022-08-20T17:39:37.147Z,41.10
2022-08-20T17:42:03.645Z,41.30
2022-08-20T17:44:30.110Z,41.50
2022-08-20T17:46:56.571Z,41.60
2022-08-20T17:49:23.041Z,41.80
2022-08-20T17:51:49.503Z,41.90
2022-08-20T17:54:15.984Z,42.00
2022-08-20T17:56:42.447Z,42.00
2022-08-20T17:59:10.308Z,42.40
2022-08-20T18:01:37.063Z,42.50
2022-08-20T18:04:03.584Z,42.60
2022-08-20T18:06:30.924Z,43.10
2022-08-20T18:08:57.570Z,43.50
2022-08-20T18:11:24.034Z,44.40
2022-08-20T18:13:50.520Z,44.10
2022-08-20T18:16:17.137Z,43.80
2022-08-20T18:18:56.333Z,43.90
2022-08-20T18:21:23.851Z,44.40
2022-08-20T18:23:50.317Z,45.30
2022-08-20T18:26:16.794Z,46.30
2022-08-20T18:28:43.264Z,47.10
2022-08-20T18:31:09.740Z,47.40
2022-08-20T18:33:36.211Z,47.90
2022-08-20T18:36:02.694Z,48.20
2022-08-20T18:38:29.154Z,48.50
2022-08-20T18:40:55.628Z,48.60
2022-08-20T18:43:22.076Z,49.00
2022-08-20T18:45:48.602Z,49.10
2022-08-20T18:48:15.062Z,49.20
2022-08-20T18:50:41.539Z,49.40
2022-08-20T18:53:07.994Z,49.50
2022-08-20T18:55:34.472Z,49.60
2022-08-20T18:58:00.943Z,49.80
2022-08-20T19:00:30.553Z,49.90
2022-08-20T19:02:57.342Z,49.90
2022-08-20T19:05:23.957Z,50.00
2022-08-20T19:07:50.436Z,50.20
2022-08-20T19:10:27.998Z,50.30
2022-08-20T19:12:54.915Z,50.50
2022-08-20T19:15:21.384Z,50.70
2022-08-20T19:17:47.857Z,50.80
2022-08-20T19:20:14.342Z,50.90
2022-08-20T19:22:40.812Z,51.10
2022-08-20T19:25:07.301Z,51.20
2022-08-20T19:27:33.774Z,51.40
2022-08-20T19:30:00.253Z,51.30
2022-08-20T19:32:26.734Z,51.50
2022-08-20T19:34:53.203Z,51.60
2022-08-20T19:37:34.351Z,51.80
2022-08-20T19:40:02.176Z,52.00
2022-08-20T19:42:31.156Z,52.00
2022-08-20T19:44:57.616Z,52.00
2022-08-20T19:47:24.077Z,52.10
2022-08-20T19:49:50.557Z,52.20
2022-08-20T19:52:17.043Z,52.30
2022-08-20T19:54:43.520Z,52.40
2022-08-20T19:57:09.987Z,52.60
2022-08-20T19:59:36.460Z,52.80
2022-08-20T20:02:04.391Z,52.80
2022-08-20T20:04:55.571Z,52.60
2022-08-20T20:07:24.398Z,52.50
2022-08-20T20:09:50.868Z,52.40
2022-08-20T20:12:22.867Z,52.30
2022-08-20T20:14:49.665Z,52.40
2022-08-20T20:17:21.001Z,52.50
2022-08-20T20:19:49.363Z,52.50
2022-08-20T20:22:19.644Z,52.60
2022-08-20T20:24:46.785Z,52.50
2022-08-20T20:27:14.815Z,52.60
2022-08-20T20:29:46.541Z,52.80
2022-08-20T20:32:12.995Z,52.80
2022-08-20T20:34:55.312Z,52.80
2022-08-20T20:37:39.122Z,53.10
2022-08-20T20:40:18.961Z,53.40
2022-08-20T20:42:45.887Z,53.50
2022-08-20T20:45:12.344Z,53.50
2022-08-20T20:47:38.816Z,53.50
2022-08-20T20:50:05.286Z,53.90
2022-08-20T20:52:31.811Z,54.00
2022-08-20T20:54:58.269Z,54.00
2022-08-20T20:57:38.263Z,54.10
2022-08-20T21:00:05.302Z,54.20
2022-08-20T21:02:33.233Z,54.20
2022-08-20T21:04:59.702Z,54.30
2022-08-20T21:07:26.189Z,54.40
2022-08-20T21:09:52.657Z,54.50
2022-08-20T21:12:19.124Z,54.70
2022-08-20T21:14:45.592Z,54.80
2022-08-20T21:17:12.062Z,54.90
2022-08-20T21:19:45.024Z,55.20
2022-08-20T21:22:11.841Z,55.30
2022-08-20T21:24:38.333Z,55.30
2022-08-20T21:27:04.802Z,55.20
2022-08-20T21:29:32.760Z,55.30
2022-08-20T21:31:59.522Z,55.40
2022-08-20T21:34:25.989Z,55.60
2022-08-20T21:36:52.461Z,55.60
2022-08-20T21:39:20.686Z,55.80
2022-08-20T21:41:47.165Z,55.80
2022-08-20T21:44:13.628Z,55.80
2022-08-20T21:46:40.093Z,55.90
2022-08-20T21:49:06.585Z,55.80
2022-08-20T21:51:33.084Z,55.90
2022-08-20T21:53:59.687Z,55.90
2022-08-20T21:56:26.155Z,56.10
2022-08-20T21:58:54.248Z,56.30
2022-08-20T22:01:21.813Z,56.30
2022-08-20T22:03:49.485Z,56.50
2022-08-20T22:06:16.977Z,56.60
2022-08-20T22:08:43.472Z,56.80
2022-08-20T22:11:09.934Z,56.80
2022-08-20T22:13:36.414Z,56.80
2022-08-20T22:16:02.874Z,56.80
2022-08-20T22:18:29.366Z,56.80
2022-08-20T22:20:55.828Z,56.90
2022-08-20T22:23:22.300Z,56.90
2022-08-20T22:25:48.755Z,57.00
2022-08-20T22:28:15.231Z,56.90
2022-08-20T22:30:42.489Z,57.10
2022-08-20T22:33:09.111Z,57.10
2022-08-20T22:35:35.592Z,57.20
2022-08-20T22:38:02.052Z,57.20
2022-08-20T22:40:28.523Z,57.30
2022-08-20T22:42:54.990Z,57.30
2022-08-20T22:45:21.464Z,57.50
2022-08-20T22:47:47.916Z,57.40
2022-08-20T22:50:14.398Z,57.60
2022-08-20T22:52:40.857Z,57.80
2022-08-20T22:55:07.344Z,57.90
2022-08-20T22:57:36.061Z,58.10
2022-08-20T23:00:02.612Z,58.20
2022-08-20T23:02:29.087Z,58.60
2022-08-20T23:04:55.548Z,58.70
2022-08-20T23:07:21.999Z,58.80
2022-08-20T23:09:48.461Z,58.80
2022-08-20T23:12:14.976Z,58.90
2022-08-20T23:14:41.453Z,58.90
2022-08-20T23:17:12.680Z,58.90
2022-08-20T23:19:39.852Z,58.90
2022-08-20T23:22:06.398Z,58.90
2022-08-20T23:24:32.884Z,59.10
2022-08-20T23:26:59.340Z,59.10
2022-08-20T23:29:26.127Z,59.20
2022-08-20T23:31:52.617Z,59.30
2022-08-20T23:34:19.093Z,59.30
2022-08-20T23:36:45.543Z,59.20
2022-08-20T23:39:12.014Z,59.20
2022-08-20T23:41:38.475Z,59.30
2022-08-20T23:44:25.142Z,59.30
2022-08-20T23:46:52.130Z,59.40
2022-08-20T23:49:21.157Z,59.50
2022-08-20T23:51:47.622Z,59.50
2022-08-20T23:54:14.090Z,59.40
2022-08-20T23:56:40.544Z,59.50
2022-08-20T23:59:07.015Z,59.60
